createdAt,value
2019-05-01T00:01:00.805Z,4.70
2019-05-01T00:03:45.404Z,4.80
2019-05-01T00:06:13.184Z,4.70
2019-05-01T00:08:39.527Z,4.70
2019-05-01T00:11:05.962Z,4.70
2019-05-01T00:13:32.305Z,4.70
2019-05-01T00:15:58.615Z,4.70
2019-05-01T00:18:24.841Z,4.70
2019-05-01T00:20:51.108Z,4.60
2019-05-01T00:23:17.372Z,4.50
2019-05-01T00:25:43.727Z,4.50
2019-05-01T00:28:10.392Z,4.50
2019-05-01T00:30:36.735Z,4.50
2019-05-01T00:33:03.157Z,4.50
2019-05-01T00:35:30.042Z,4.50
2019-05-01T00:37:56.212Z,4.40
2019-05-01T00:40:22.447Z,4.40
2019-05-01T00:42:48.735Z,4.30
2019-05-01T00:45:15.101Z,4.30
2019-05-01T00:47:41.441Z,4.30
2019-05-01T00:50:07.778Z,4.20
2019-05-01T00:52:34.129Z,4.20
2019-05-01T00:55:18.862Z,4.10
2019-05-01T00:57:55.973Z,4.10
2019-05-01T01:00:24.183Z,4.00
2019-05-01T01:02:50.551Z,4.00
2019-05-01T01:05:17.787Z,3.90
2019-05-01T01:07:44.040Z,3.90
2019-05-01T01:10:10.647Z,3.90
2019-05-01T01:12:36.837Z,3.90
2019-05-01T01:15:04.169Z,3.80
2019-05-01T01:17:30.446Z,3.80
2019-05-01T01:19:56.744Z,3.80
2019-05-01T01:22:23.340Z,3.80
2019-05-01T01:24:49.810Z,3.80
2019-05-01T01:27:16.357Z,3.80
2019-05-01T01:29:42.826Z,3.70
2019-05-01T01:32:09.250Z,3.70
2019-05-01T01:34:35.606Z,3.70
2019-05-01T01:37:01.848Z,3.70
2019-05-01T01:39:28.286Z,3.70
2019-05-01T01:41:55.300Z,3.70
2019-05-01T01:44:30.303Z,3.60
2019-05-01T01:46:58.630Z,3.50
2019-05-01T01:49:24.984Z,3.50
2019-05-01T01:51:51.408Z,3.50
2019-05-01T01:54:17.866Z,3.40
2019-05-01T01:56:44.207Z,3.40
2019-05-01T01:59:10.531Z,3.40
2019-05-01T02:01:38.827Z,3.40
2019-05-01T02:04:12.680Z,3.40
2019-05-01T02:06:39.024Z,3.40
2019-05-01T02:09:06.592Z,3.40
2019-05-01T02:11:33.057Z,3.30
2019-05-01T02:13:59.486Z,3.20
2019-05-01T02:16:26.046Z,3.20
2019-05-01T02:18:52.432Z,3.20
2019-05-01T02:21:18.796Z,3.20
2019-05-01T02:23:45.026Z,3.20
2019-05-01T02:26:14.021Z,3.20
2019-05-01T02:28:48.433Z,3.20
2019-05-01T02:31:28.345Z,3.20
2019-05-01T02:33:49.618Z,3.10
2019-05-01T02:36:17.373Z,3.00
2019-05-01T02:38:44.934Z,3.00
2019-05-01T02:41:13.074Z,3.00
2019-05-01T02:43:42.455Z,2.90
2019-05-01T02:46:10.581Z,2.90
2019-05-01T02:48:40.642Z,2.80
2019-05-01T02:51:07.679Z,2.80
2019-05-01T02:53:37.760Z,2.80
2019-05-01T02:56:20.012Z,2.80
2019-05-01T02:58:49.484Z,2.70
2019-05-01T03:01:16.024Z,2.70
2019-05-01T03:03:42.339Z,2.60
2019-05-01T03:06:08.829Z,2.60
2019-05-01T03:08:36.564Z,2.60
2019-05-01T03:11:03.087Z,2.60
2019-05-01T03:13:29.749Z,2.60
2019-05-01T03:15:56.169Z,2.60
2019-05-01T03:18:33.345Z,2.50
2019-05-01T03:21:10.411Z,2.50
2019-05-01T03:23:39.260Z,2.50
2019-05-01T03:26:05.815Z,2.50
2019-05-01T03:28:32.435Z,2.40
2019-05-01T03:30:58.782Z,2.40
2019-05-01T03:33:25.229Z,2.40
2019-05-01T03:35:52.934Z,2.30
2019-05-01T03:38:19.249Z,2.30
2019-05-01T03:40:45.776Z,2.30
2019-05-01T03:43:12.306Z,2.20
2019-05-01T03:45:39.125Z,2.20
2019-05-01T03:48:05.723Z,2.20
2019-05-01T03:50:32.056Z,2.20
2019-05-01T03:52:58.565Z,2.20
2019-05-01T03:55:25.026Z,2.30
2019-05-01T03:57:51.599Z,2.30
2019-05-01T04:00:19.921Z,2.20
2019-05-01T04:03:04.565Z,2.10
2019-05-01T04:05:30.932Z,2.10
2019-05-01T04:07:57.375Z,2.10
2019-05-01T04:10:23.932Z,2.10
2019-05-01T04:12:50.471Z,2.10
2019-05-01T04:15:16.962Z,2.10
2019-05-01T04:17:45.472Z,2.10
2019-05-01T04:20:11.929Z,2.10
2019-05-01T04:22:45.641Z,2.10
2019-05-01T04:25:12.071Z,2.00
2019-05-01T04:27:40.396Z,2.00
2019-05-01T04:30:24.207Z,2.00
2019-05-01T04:32:53.559Z,1.90
2019-05-01T04:35:38.542Z,2.00
2019-05-01T04:38:04.966Z,2.00
2019-05-01T04:40:31.305Z,1.90
2019-05-01T04:42:57.689Z,1.90
2019-05-01T04:45:24.369Z,1.90
2019-05-01T04:47:50.991Z,2.00
2019-05-01T04:50:17.470Z,2.10
2019-05-01T04:52:44.357Z,2.10
2019-05-01T04:55:10.989Z,2.10
2019-05-01T04:57:37.754Z,2.20
2019-05-01T05:00:07.300Z,2.20
2019-05-01T05:02:36.199Z,2.20
2019-05-01T05:05:04.546Z,2.30
2019-05-01T05:07:31.184Z,2.30
2019-05-01T05:09:57.651Z,2.30
2019-05-01T05:12:29.107Z,2.30
2019-05-01T05:14:57.866Z,2.30
2019-05-01T05:17:29.934Z,2.40
2019-05-01T05:19:56.252Z,2.40
2019-05-01T05:22:23.158Z,2.40
2019-05-01T05:24:50.143Z,2.50
2019-05-01T05:27:17.047Z,2.60
2019-05-01T05:29:44.737Z,2.60
2019-05-01T05:32:13.068Z,2.70
2019-05-01T05:34:41.598Z,2.80
2019-05-01T05:37:15.815Z,2.90
2019-05-01T05:39:47.131Z,2.90
2019-05-01T05:42:13.718Z,3.00
2019-05-01T05:44:40.893Z,3.10
2019-05-01T05:47:08.493Z,3.20
2019-05-01T05:49:35.047Z,3.30
2019-05-01T05:52:13.081Z,3.40
2019-05-01T05:54:47.168Z,3.50
2019-05-01T05:57:18.633Z,3.50
2019-05-01T05:59:58.551Z,3.60
2019-05-01T06:02:33.418Z,3.70
2019-05-01T06:05:18.719Z,3.80
2019-05-01T06:08:06.663Z,3.90
2019-05-01T06:10:35.649Z,4.00
2019-05-01T06:13:13.074Z,4.20
2019-05-01T06:15:42.743Z,4.20
2019-05-01T06:18:14.003Z,4.30
2019-05-01T06:20:42.571Z,4.40
2019-05-01T06:23:15.857Z,4.50
2019-05-01T06:25:47.113Z,4.60
2019-05-01T06:28:14.409Z,4.70
2019-05-01T06:30:42.115Z,4.80
2019-05-01T06:33:09.734Z,5.00
2019-05-01T06:35:38.090Z,5.10
2019-05-01T06:38:12.300Z,5.20
2019-05-01T06:40:39.883Z,5.30
2019-05-01T06:43:11.025Z,5.40
2019-05-01T06:45:39.528Z,5.50
2019-05-01T06:48:17.765Z,5.70
2019-05-01T06:50:50.375Z,5.80
2019-05-01T06:53:17.292Z,5.90
2019-05-01T06:55:43.846Z,6.00
2019-05-01T06:58:10.398Z,6.10
2019-05-01T07:00:39.160Z,6.10
2019-05-01T07:03:10.057Z,6.10
2019-05-01T07:05:36.498Z,6.20
2019-05-01T07:08:03.274Z,6.30
2019-05-01T07:10:42.461Z,6.50
2019-05-01T07:13:04.786Z,6.60
2019-05-01T07:15:30.421Z,6.80
2019-05-01T07:17:57.433Z,7.00
2019-05-01T07:20:25.702Z,7.10
2019-05-01T07:22:53.264Z,7.30
2019-05-01T07:25:19.962Z,7.40
2019-05-01T07:27:46.555Z,7.40
2019-05-01T07:30:19.695Z,7.60
2019-05-01T07:32:45.406Z,7.70
2019-05-01T07:35:11.872Z,7.80
2019-05-01T07:37:38.398Z,7.90
2019-05-01T07:40:05.250Z,8.00
2019-05-01T07:42:39.416Z,8.20
2019-05-01T07:45:26.378Z,8.40
2019-05-01T07:47:53.432Z,8.60
2019-05-01T07:50:24.315Z,8.60
2019-05-01T07:52:52.261Z,8.80
2019-05-01T07:55:20.071Z,9.00
2019-05-01T07:57:49.214Z,9.10
2019-05-01T08:00:29.863Z,9.20
2019-05-01T08:02:56.376Z,9.20
2019-05-01T08:05:23.017Z,9.30
2019-05-01T08:07:49.403Z,9.40
2019-05-01T08:10:15.955Z,9.50
2019-05-01T08:12:45.026Z,9.60
2019-05-01T08:15:12.050Z,9.70
2019-05-01T08:17:40.348Z,9.90
2019-05-01T08:20:17.787Z,10.00
2019-05-01T08:22:52.111Z,10.10
2019-05-01T08:25:18.729Z,10.30
2019-05-01T08:27:58.010Z,10.40
2019-05-01T08:30:26.393Z,10.50
2019-05-01T08:33:04.014Z,10.60
2019-05-01T08:35:31.693Z,10.70
2019-05-01T08:38:00.336Z,10.90
2019-05-01T08:40:26.778Z,11.00
2019-05-01T08:42:52.955Z,11.20
2019-05-01T08:45:21.308Z,11.30
2019-05-01T08:48:01.591Z,11.50
2019-05-01T08:50:31.043Z,11.60
2019-05-01T08:52:57.636Z,11.80
2019-05-01T08:55:24.118Z,12.00
2019-05-01T08:57:50.617Z,12.10
2019-05-01T09:00:17.510Z,12.20
2019-05-01T09:02:44.164Z,12.40
2019-05-01T09:05:27.585Z,12.50
2019-05-01T09:07:41.746Z,12.60
2019-05-01T09:10:09.350Z,12.90
2019-05-01T09:12:35.699Z,13.10
2019-05-01T09:15:07.148Z,13.30
2019-05-01T09:17:32.728Z,13.40
2019-05-01T09:20:01.947Z,13.60
2019-05-01T09:25:46.420Z,14.10
2019-05-01T09:28:14.932Z,14.30
2019-05-01T09:30:49.338Z,14.30
2019-05-01T09:33:15.881Z,14.10
2019-05-01T09:35:45.633Z,14.10
2019-05-01T09:38:11.758Z,14.40
2019-05-01T09:40:38.154Z,14.30
2019-05-01T09:43:04.605Z,14.20
2019-05-01T09:45:30.962Z,14.60
2019-05-01T09:47:57.301Z,14.90
2019-05-01T09:50:25.909Z,15.30
2019-05-01T09:53:00.981Z,15.60
2019-05-01T09:55:32.340Z,15.90
2019-05-01T09:57:58.614Z,16.00
2019-05-01T10:00:26.948Z,16.20
2019-05-01T10:02:54.683Z,16.40
2019-05-01T10:05:28.753Z,16.70
2019-05-01T10:07:49.548Z,16.70
2019-05-01T10:10:16.046Z,16.80
2019-05-01T10:12:47.086Z,16.90
2019-05-01T10:15:11.231Z,17.10
2019-05-01T10:17:37.647Z,17.10
2019-05-01T10:20:05.207Z,17.30
2019-05-01T10:22:57.547Z,17.40
2019-05-01T10:25:53.477Z,17.60
2019-05-01T10:28:20.549Z,17.60
2019-05-01T10:30:54.677Z,17.70
2019-05-01T10:33:38.197Z,17.70
2019-05-01T10:39:35.911Z,18.00
2019-05-01T10:44:51.751Z,18.10
2019-05-01T10:47:18.154Z,18.00
2019-05-01T10:50:10.617Z,18.20
2019-05-01T10:52:32.406Z,18.30
2019-05-01T10:54:58.695Z,18.30
2019-05-01T10:57:40.131Z,18.40
2019-05-01T11:00:07.523Z,18.30
2019-05-01T11:02:33.848Z,18.40
2019-05-01T11:05:00.220Z,18.50
2019-05-01T11:07:26.867Z,18.40
2019-05-01T11:12:46.160Z,18.40
2019-05-01T11:15:14.074Z,18.40
2019-05-01T11:17:40.391Z,18.40
2019-05-01T11:20:07.063Z,18.60
2019-05-01T11:25:50.603Z,18.60
2019-05-01T11:28:44.095Z,18.60
2019-05-01T11:31:12.419Z,18.70
2019-05-01T11:33:55.943Z,19.00
2019-05-01T11:36:36.144Z,19.10
2019-05-01T11:39:24.146Z,19.20
2019-05-01T11:42:07.547Z,19.20
2019-05-01T11:44:33.763Z,19.30
2019-05-01T11:47:13.815Z,19.50
2019-05-01T11:49:45.651Z,19.40
2019-05-01T11:52:19.354Z,19.50
2019-05-01T11:54:47.086Z,19.30
2019-05-01T11:57:22.830Z,19.50
2019-05-01T11:59:49.184Z,19.50
2019-05-01T12:02:15.410Z,19.30
2019-05-01T12:04:41.862Z,19.40
2019-05-01T12:07:08.151Z,19.30
2019-05-01T12:09:34.647Z,19.40
2019-05-01T12:12:05.515Z,19.50
2019-05-01T12:14:31.782Z,19.70
2019-05-01T12:17:09.043Z,19.50
2019-05-01T12:19:35.357Z,19.60
2019-05-01T12:22:01.606Z,19.70
2019-05-01T12:24:27.944Z,19.80
2019-05-01T12:26:54.204Z,19.80
2019-05-01T12:29:20.667Z,19.90
2019-05-01T12:31:46.959Z,19.70
2019-05-01T12:34:13.482Z,19.60
2019-05-01T12:36:40.918Z,19.60
2019-05-01T12:39:09.455Z,19.70
2019-05-01T12:41:38.215Z,19.60
2019-05-01T12:44:04.471Z,19.70
2019-05-01T12:46:35.628Z,19.80
2019-05-01T12:49:01.969Z,19.80
2019-05-01T12:51:28.218Z,19.70
2019-05-01T12:53:56.520Z,19.60
2019-05-01T12:56:27.611Z,19.60
2019-05-01T12:58:55.930Z,19.70
2019-05-01T13:01:22.081Z,19.70
2019-05-01T13:03:48.334Z,19.40
2019-05-01T13:06:14.688Z,19.30
2019-05-01T13:08:41.550Z,19.40
2019-05-01T13:11:07.869Z,19.50
2019-05-01T13:13:34.111Z,19.30
2019-05-01T13:16:00.981Z,19.10
2019-05-01T13:18:27.308Z,19.30
2019-05-01T13:20:55.551Z,19.20
2019-05-01T13:23:21.937Z,19.30
2019-05-01T13:25:49.179Z,19.30
2019-05-01T13:28:17.445Z,19.40
2019-05-01T13:30:45.778Z,19.20
2019-05-01T13:33:12.141Z,19.10
2019-05-01T13:35:38.440Z,19.00
2019-05-01T13:38:04.962Z,19.10
2019-05-01T13:40:31.214Z,19.10
2019-05-01T13:42:57.574Z,19.00
2019-05-01T13:45:23.816Z,19.00
2019-05-01T13:47:50.320Z,19.10
2019-05-01T13:50:16.867Z,19.00
2019-05-01T13:52:43.207Z,19.00
2019-05-01T13:55:09.759Z,19.00
2019-05-01T13:57:35.922Z,18.90
2019-05-01T14:00:05.182Z,18.90
2019-05-01T14:02:31.463Z,19.00
2019-05-01T14:04:57.674Z,19.00
2019-05-01T14:07:23.840Z,19.00
2019-05-01T14:09:50.125Z,19.00
2019-05-01T14:12:16.391Z,19.00
2019-05-01T14:14:42.619Z,19.00
2019-05-01T14:17:09.008Z,19.00
2019-05-01T14:19:37.487Z,19.00
2019-05-01T14:22:17.617Z,18.90
2019-05-01T14:24:45.853Z,19.00
2019-05-01T14:27:12.112Z,19.00
2019-05-01T14:29:38.343Z,19.00
2019-05-01T14:32:04.764Z,18.90
2019-05-01T14:34:31.016Z,18.90
2019-05-01T14:36:57.259Z,18.90
2019-05-01T14:39:23.531Z,19.00
2019-05-01T14:41:50.077Z,19.10
2019-05-01T14:44:16.358Z,19.00
2019-05-01T14:46:42.711Z,19.10
2019-05-01T14:49:09.085Z,19.10
2019-05-01T14:51:35.613Z,19.00
2019-05-01T14:54:01.924Z,18.90
2019-05-01T14:56:28.213Z,18.80
2019-05-01T14:58:54.418Z,18.80
2019-05-01T15:01:20.578Z,18.80
2019-05-01T15:03:46.690Z,18.90
2019-05-01T15:06:12.992Z,18.90
2019-05-01T15:08:39.410Z,19.00
2019-05-01T15:11:05.575Z,19.00
2019-05-01T15:13:36.734Z,18.90
2019-05-01T15:16:08.026Z,19.00
2019-05-01T15:18:36.340Z,19.00
2019-05-01T15:21:02.739Z,19.00
2019-05-01T15:23:28.966Z,19.00
2019-05-01T15:25:55.206Z,18.90
2019-05-01T15:28:21.575Z,18.90
2019-05-01T15:30:48.044Z,18.80
2019-05-01T15:33:14.905Z,18.80
2019-05-01T15:35:41.638Z,18.70
2019-05-01T15:38:13.334Z,18.70
2019-05-01T15:41:21.339Z,18.60
2019-05-01T15:44:04.778Z,18.70
2019-05-01T15:46:31.924Z,18.70
2019-05-01T15:48:58.149Z,18.60
2019-05-01T15:51:24.531Z,18.60
2019-05-01T15:53:50.862Z,18.60
2019-05-01T15:56:17.132Z,18.60
2019-05-01T15:58:43.437Z,18.60
2019-05-01T16:01:09.880Z,18.50
2019-05-01T16:03:36.783Z,18.50
2019-05-01T16:06:03.171Z,18.60
2019-05-01T16:08:29.480Z,18.50
2019-05-01T16:10:57.615Z,18.50
2019-05-01T16:13:23.949Z,18.40
2019-05-01T16:15:50.218Z,18.40
2019-05-01T16:18:16.364Z,18.50
2019-05-01T16:20:42.636Z,18.40
2019-05-01T16:23:08.975Z,18.50
2019-05-01T16:25:35.328Z,18.40
2019-05-01T16:28:01.557Z,18.40
2019-05-01T16:30:27.790Z,18.40
2019-05-01T16:32:54.148Z,18.30
2019-05-01T16:35:20.383Z,18.30
2019-05-01T16:37:46.919Z,18.30
2019-05-01T16:40:15.261Z,18.20
2019-05-01T16:42:41.717Z,18.20
2019-05-01T16:45:08.363Z,18.20
2019-05-01T16:47:34.595Z,18.20
2019-05-01T16:50:00.742Z,18.20
2019-05-01T16:52:29.010Z,18.20
2019-05-01T16:54:59.343Z,18.10
2019-05-01T16:57:23.651Z,18.10
2019-05-01T16:59:49.768Z,18.10
2019-05-01T17:02:20.893Z,18.10
2019-05-01T17:04:57.876Z,18.00
2019-05-01T17:07:42.882Z,18.00
2019-05-01T17:10:17.339Z,17.90
2019-05-01T17:12:48.072Z,17.90
2019-05-01T17:15:16.918Z,17.90
2019-05-01T17:17:43.942Z,17.80
2019-05-01T17:20:10.417Z,17.80
2019-05-01T17:22:36.944Z,17.80
2019-05-01T17:25:05.893Z,17.70
2019-05-01T17:27:32.171Z,17.70
2019-05-01T17:29:58.418Z,17.70
2019-05-01T17:32:24.754Z,17.70
2019-05-01T17:34:51.071Z,17.70
2019-05-01T17:37:17.296Z,17.60
2019-05-01T17:39:43.550Z,17.60
2019-05-01T17:42:09.817Z,17.60
2019-05-01T17:44:36.065Z,17.50
2019-05-01T17:47:02.582Z,17.50
2019-05-01T17:49:28.941Z,17.40
2019-05-01T17:51:55.255Z,17.40
2019-05-01T17:54:21.476Z,17.30
2019-05-01T17:56:48.496Z,17.20
2019-05-01T17:59:15.743Z,17.20
2019-05-01T18:01:46.875Z,17.10
2019-05-01T18:04:24.274Z,17.10
2019-05-01T18:06:51.565Z,17.00
2019-05-01T18:09:18.237Z,16.90
2019-05-01T18:11:47.244Z,16.70
2019-05-01T18:14:12.806Z,16.60
2019-05-01T18:16:38.911Z,16.50
2019-05-01T18:19:09.627Z,16.40
2019-05-01T18:21:38.358Z,16.30
2019-05-01T18:24:28.758Z,16.20
2019-05-01T18:27:03.093Z,16.10
2019-05-01T18:29:48.864Z,16.00
2019-05-01T18:32:28.825Z,15.90
2019-05-01T18:34:57.583Z,15.70
2019-05-01T18:37:25.944Z,15.70
2019-05-01T18:39:52.213Z,15.60
2019-05-01T18:42:19.562Z,15.50
2019-05-01T18:44:47.606Z,15.50
2019-05-01T18:47:14.219Z,15.40
2019-05-01T18:49:40.847Z,15.20
2019-05-01T18:52:08.291Z,15.10
2019-05-01T18:54:36.204Z,15.00
2019-05-01T18:57:03.214Z,14.90
2019-05-01T18:59:29.495Z,14.80
2019-05-01T19:01:56.114Z,14.70
2019-05-01T19:04:23.509Z,14.60
2019-05-01T19:06:50.827Z,14.40
2019-05-01T19:09:29.351Z,14.30
2019-05-01T19:11:45.548Z,14.20
2019-05-01T19:14:12.117Z,14.10
2019-05-01T19:16:44.624Z,14.00
2019-05-01T19:19:07.141Z,13.90
2019-05-01T19:21:35.102Z,13.80
2019-05-01T19:24:02.798Z,13.70
2019-05-01T19:26:30.418Z,13.50
2019-05-01T19:28:57.098Z,13.40
2019-05-01T19:31:23.748Z,13.40
2019-05-01T19:33:49.963Z,13.30
2019-05-01T19:36:16.420Z,13.20
2019-05-01T19:38:42.753Z,13.20
2019-05-01T19:41:13.932Z,13.20
2019-05-01T19:43:40.397Z,13.10
2019-05-01T19:46:05.775Z,13.00
2019-05-01T19:48:32.288Z,12.90
2019-05-01T19:50:58.696Z,12.80
2019-05-01T19:53:25.223Z,12.70
2019-05-01T19:55:52.165Z,12.60
2019-05-01T19:58:19.649Z,12.50
2019-05-01T20:00:50.235Z,12.50
2019-05-01T20:03:16.643Z,12.50
2019-05-01T20:05:42.885Z,12.40
2019-05-01T20:08:09.392Z,12.30
2019-05-01T20:10:35.567Z,12.20
2019-05-01T20:13:01.902Z,12.10
2019-05-01T20:15:28.323Z,12.00
2019-05-01T20:17:54.789Z,12.00
2019-05-01T20:20:21.297Z,11.90
2019-05-01T20:22:48.076Z,11.90
2019-05-01T20:25:19.395Z,11.90
2019-05-01T20:27:47.844Z,11.80
2019-05-01T20:30:12.023Z,11.70
2019-05-01T20:32:38.169Z,11.60
2019-05-01T20:35:05.030Z,11.40
2019-05-01T20:37:31.547Z,11.30
2019-05-01T20:40:10.377Z,11.30
2019-05-01T20:42:26.055Z,11.20
2019-05-01T20:45:03.998Z,11.20
2019-05-01T20:47:34.373Z,11.20
2019-05-01T20:49:48.360Z,11.10
2019-05-01T20:52:14.811Z,11.00
2019-05-01T20:54:40.959Z,11.00
2019-05-01T20:57:13.574Z,11.00
2019-05-01T20:59:39.252Z,11.00
2019-05-01T21:02:08.091Z,11.00
2019-05-01T21:04:44.330Z,10.90
2019-05-01T21:07:21.443Z,10.80
2019-05-01T21:09:56.969Z,10.90
2019-05-01T21:12:17.768Z,10.80
2019-05-01T21:14:45.252Z,10.60
2019-05-01T21:17:13.661Z,10.60
2019-05-01T21:19:40.595Z,10.40
2019-05-01T21:22:06.923Z,10.30
2019-05-01T21:24:34.089Z,10.10
2019-05-01T21:27:00.833Z,10.00
2019-05-01T21:29:27.806Z,9.90
2019-05-01T21:31:54.332Z,9.90
2019-05-01T21:34:20.799Z,9.80
2019-05-01T21:36:52.280Z,9.70
2019-05-01T21:39:17.393Z,9.70
2019-05-01T21:41:43.538Z,9.60
2019-05-01T21:44:09.748Z,9.60
2019-05-01T21:46:35.883Z,9.60
2019-05-01T21:49:02.687Z,9.60
2019-05-01T21:51:29.097Z,9.60
2019-05-01T21:53:55.239Z,9.50
2019-05-01T21:56:21.355Z,9.40
2019-05-01T21:58:48.634Z,9.30
2019-05-01T22:01:15.059Z,9.20
2019-05-01T22:03:41.286Z,9.20
2019-05-01T22:06:11.275Z,9.10
2019-05-01T22:08:39.122Z,9.10
2019-05-01T22:11:05.760Z,9.10
2019-05-01T22:13:32.277Z,9.10
2019-05-01T22:16:00.417Z,9.10
2019-05-01T22:18:31.727Z,9.00
2019-05-01T22:21:05.612Z,8.90
2019-05-01T22:23:36.831Z,8.90
2019-05-01T22:26:03.283Z,8.70
2019-05-01T22:28:31.541Z,8.70
2019-05-01T22:30:59.759Z,8.80
2019-05-01T22:33:26.258Z,8.70
2019-05-01T22:35:53.235Z,8.70
2019-05-01T22:38:19.490Z,8.60
2019-05-01T22:40:47.760Z,8.60
2019-05-01T22:43:14.479Z,8.60
2019-05-01T22:45:41.039Z,8.50
2019-05-01T22:48:07.296Z,8.50
2019-05-01T22:50:33.537Z,8.50
2019-05-01T22:52:59.853Z,8.40
2019-05-01T22:55:26.747Z,8.30
2019-05-01T22:57:53.041Z,8.20
2019-05-01T23:00:42.051Z,8.10
2019-05-01T23:03:22.119Z,8.00
2019-05-01T23:05:48.476Z,8.00
2019-05-01T23:08:15.096Z,8.10
2019-05-01T23:10:41.959Z,8.10
2019-05-01T23:13:09.397Z,8.00
2019-05-01T23:15:35.869Z,8.00
2019-05-01T23:18:02.396Z,7.90
2019-05-01T23:20:28.763Z,7.90
2019-05-01T23:22:55.108Z,7.80
2019-05-01T23:25:21.553Z,7.80
2019-05-01T23:27:47.770Z,7.70
2019-05-01T23:30:16.132Z,7.70
2019-05-01T23:32:42.706Z,7.60
2019-05-01T23:35:09.278Z,7.50
2019-05-01T23:37:35.719Z,7.50
2019-05-01T23:40:02.148Z,7.40
2019-05-01T23:42:28.588Z,7.40
2019-05-01T23:44:54.928Z,7.40
2019-05-01T23:47:21.120Z,7.40
2019-05-01T23:49:47.698Z,7.30
2019-05-01T23:52:15.539Z,7.30
2019-05-01T23:54:41.693Z,7.30
2019-05-01T23:57:07.910Z,7.30
2019-05-01T23:59:34.247Z,7.30
